Terminal Aerodrome Forecast
Issued by NWS Spokane, WA

Home | Current Version | Previous Version | Text Only | Print | Product List | Glossary On
Versions: 1 2 3 4 5 6 7 8 9 10 11 12 13 14 15 16 17 18 19
000
FTUS46 KOTX 161129
TAFLWS
TAF
KLWS 161129Z 1612/1712 08003KT 6SM BR OVC003
      TEMPO 1612/1616 1SM -SN BR OVC006
     FM162000 12005KT 4SM BR OVC007
     FM170000 14005KT P6SM OVC010
     FM170600 12007KT P6SM OVC015=

USA.gov is the U.S. government's official web portal to all federal, state and local government web resources and services.